Hendon, United Kingdom
Current Conditions -  °F | °C
As of 9:50 PM on Sunday 23 Nov 2014 (Local Time) from EGWU Reporting Station
Clear Clear  
Wind Chill: 39°   Ceiling: Unl
Heat Index: 39°   Visibility: 6mi
Dew Point: 37°   Wind: 3mph
Humidity: 93%   Direction: 330°NNW
Pressure: 30.15"   Gusts: NA
Location:  51.59°N, 0.22°W
Report Text: EGWU 232150Z 33003KT CAVOK 04/03 Q1021 BLU TEMPO 6000 MIFG WHT
Loading
Personal Weather Stations






























Interactive Weather Map New forecast layout! Learn more

10-Day Weather Forecast

Advertisements
Track Severe Weather on mobile